createdAt,value
2018-02-04T00:00:59.035Z,22.40
2018-02-04T00:03:26.578Z,18.97
2018-02-04T00:05:54.135Z,16.43
2018-02-04T00:08:21.682Z,15.30
2018-02-04T00:10:49.254Z,16.50
2018-02-04T00:13:16.810Z,19.10
2018-02-04T00:15:44.342Z,19.47
2018-02-04T00:18:11.887Z,17.53
2018-02-04T00:20:39.436Z,17.47
2018-02-04T00:23:07.010Z,16.47
2018-02-04T00:25:35.334Z,18.00
2018-02-04T00:28:03.019Z,18.57
2018-02-04T00:30:30.578Z,16.27
2018-02-04T00:33:05.971Z,18.50
2018-02-04T00:35:34.305Z,16.27
2018-02-04T00:38:01.862Z,18.00
2018-02-04T00:40:29.415Z,15.77
2018-02-04T00:42:56.960Z,16.80
2018-02-04T00:45:24.508Z,15.23
2018-02-04T00:47:52.082Z,16.13
2018-02-04T00:50:19.626Z,28.27
2018-02-04T00:52:47.170Z,17.03
2018-02-04T00:55:14.732Z,15.40
2018-02-04T00:57:42.298Z,18.10
2018-02-04T01:00:09.877Z,17.83
2018-02-04T01:02:37.424Z,21.67
2018-02-04T01:05:04.987Z,17.80
2018-02-04T01:07:32.526Z,16.73
2018-02-04T01:10:00.897Z,17.93
2018-02-04T01:12:28.463Z,16.97
2018-02-04T01:15:07.177Z,17.27
2018-02-04T01:17:35.558Z,16.33
2018-02-04T01:20:03.166Z,18.47
2018-02-04T01:22:30.733Z,15.47
2018-02-04T01:24:58.284Z,18.70
2018-02-04T01:27:25.835Z,18.10
2018-02-04T01:29:53.402Z,20.53
2018-02-04T01:32:20.956Z,17.63
2018-02-04T01:34:48.504Z,17.87
2018-02-04T01:37:16.050Z,17.17
2018-02-04T01:39:44.359Z,15.40
2018-02-04T01:42:11.933Z,17.70
2018-02-04T01:44:40.284Z,19.27
2018-02-04T01:47:07.822Z,15.70
2018-02-04T01:49:36.140Z,18.97
2018-02-04T01:52:03.688Z,18.80
2018-02-04T01:54:31.267Z,17.90
2018-02-04T01:56:58.825Z,17.47
2018-02-04T01:59:26.366Z,19.57
2018-02-04T02:01:53.918Z,19.33
2018-02-04T02:04:21.465Z,19.30
2018-02-04T02:06:49.798Z,20.43
2018-02-04T02:09:17.345Z,21.73
2018-02-04T02:11:44.893Z,23.47
2018-02-04T02:14:12.442Z,22.77
2018-02-04T02:16:39.981Z,22.50
2018-02-04T02:19:08.290Z,23.10
2018-02-04T02:21:35.836Z,21.60
2018-02-04T02:24:03.405Z,19.77
2018-02-04T02:26:30.962Z,20.37
2018-02-04T02:28:58.522Z,20.03
2018-02-04T02:31:26.070Z,23.40
2018-02-04T02:33:53.615Z,20.87
2018-02-04T02:36:21.204Z,21.10
2018-02-04T02:38:48.742Z,20.40
2018-02-04T02:41:16.283Z,23.20
2018-02-04T02:43:44.626Z,22.73
2018-02-04T02:46:12.168Z,19.83
2018-02-04T02:48:39.738Z,20.33
2018-02-04T02:51:07.293Z,18.87
2018-02-04T02:53:34.845Z,23.20
2018-02-04T02:56:02.406Z,22.60
2018-02-04T02:58:29.972Z,22.40
2018-02-04T03:00:57.535Z,21.53
2018-02-04T03:03:25.091Z,23.83
2018-02-04T03:05:52.683Z,20.80
2018-02-04T03:08:20.230Z,20.13
2018-02-04T03:10:47.873Z,19.93
2018-02-04T03:13:15.450Z,19.70
2018-02-04T03:15:43.009Z,21.80
2018-02-04T03:18:10.555Z,24.67
2018-02-04T03:20:38.099Z,26.73
2018-02-04T03:23:05.669Z,24.30
2018-02-04T03:25:33.234Z,28.53
2018-02-04T03:28:00.776Z,25.43
2018-02-04T03:30:30.288Z,25.80
2018-02-04T03:32:57.838Z,26.30
2018-02-04T03:35:25.388Z,29.17
2018-02-04T03:37:53.726Z,26.43
2018-02-04T03:40:21.275Z,30.83
2018-02-04T03:42:48.818Z,26.53
2018-02-04T03:45:16.362Z,28.83
2018-02-04T03:47:44.253Z,27.43
2018-02-04T03:50:11.836Z,30.55
2018-02-04T03:52:39.374Z,30.13
2018-02-04T03:55:06.933Z,31.00
2018-02-04T03:57:34.475Z,26.53
2018-02-04T04:00:02.027Z,24.93
2018-02-04T04:02:29.594Z,28.10
2018-02-04T04:04:57.138Z,31.00
2018-02-04T04:07:25.448Z,30.53
2018-02-04T04:09:52.991Z,31.43
2018-02-04T04:12:20.542Z,27.77
2018-02-04T04:14:48.114Z,33.83
2018-02-04T04:17:15.667Z,36.27
2018-02-04T04:19:43.206Z,33.00
2018-02-04T04:22:11.515Z,29.13
2018-02-04T04:24:39.064Z,29.13
2018-02-04T04:27:06.646Z,27.97
2018-02-04T04:29:34.191Z,25.47
2018-02-04T04:32:01.761Z,28.60
2018-02-04T04:34:29.317Z,25.70
2018-02-04T04:36:56.865Z,24.10
2018-02-04T04:39:24.430Z,24.63
2018-02-04T04:41:51.970Z,27.10
2018-02-04T04:44:19.528Z,24.50
2018-02-04T04:46:47.832Z,26.03
2018-02-04T04:49:15.378Z,28.57
2018-02-04T04:51:43.020Z,29.33
2018-02-04T04:54:11.339Z,23.33
2018-02-04T04:56:38.910Z,24.23
2018-02-04T04:59:06.454Z,25.33
2018-02-04T05:01:33.998Z,27.33
2018-02-04T05:04:01.580Z,24.55
2018-02-04T05:06:29.136Z,28.53
2018-02-04T05:08:56.690Z,26.93
2018-02-04T05:11:24.242Z,25.40
2018-02-04T05:13:51.787Z,27.57
2018-02-04T05:16:20.130Z,28.63
2018-02-04T05:18:47.686Z,29.77
2018-02-04T05:21:15.242Z,30.05
2018-02-04T05:23:42.811Z,29.20
2018-02-04T05:26:10.368Z,31.07
2018-02-04T05:28:37.939Z,34.13
2018-02-04T05:31:05.492Z,28.23
2018-02-04T05:33:33.039Z,26.93
2018-02-04T05:36:00.595Z,24.83
2018-02-04T05:38:28.149Z,25.48
2018-02-04T05:46:46.447Z,34.93
2018-02-04T05:49:14.022Z,32.33
2018-02-04T05:51:41.590Z,31.57
2018-02-04T05:54:09.158Z,30.27
2018-02-04T05:56:36.710Z,23.87
2018-02-04T05:59:04.303Z,29.40
2018-02-04T06:01:31.858Z,23.43
2018-02-04T06:03:59.415Z,25.40
2018-02-04T06:06:27.743Z,29.30
2018-02-04T06:08:55.297Z,22.97
2018-02-04T06:11:22.885Z,24.13
2018-02-04T06:13:50.448Z,26.23
2018-02-04T06:22:13.477Z,28.20
2018-02-04T06:24:41.035Z,25.37
2018-02-04T06:27:09.374Z,31.40
2018-02-04T06:29:36.937Z,25.30
2018-02-04T06:32:04.573Z,26.60
2018-02-04T06:34:32.147Z,23.40
2018-02-04T06:37:00.534Z,25.97
2018-02-04T06:42:26.455Z,30.67
2018-02-04T06:45:15.124Z,28.50
2018-02-04T06:47:57.019Z,30.80
2018-02-04T06:50:29.393Z,31.33
2018-02-04T06:52:56.970Z,28.50
2018-02-04T06:55:26.531Z,27.80
2018-02-04T06:58:00.133Z,25.53
2018-02-04T07:00:27.692Z,28.07
2018-02-04T07:02:55.282Z,27.67
2018-02-04T07:08:29.653Z,26.25
2018-02-04T07:10:57.985Z,31.60
2018-02-04T07:13:25.537Z,30.53
2018-02-04T07:15:53.104Z,29.23
2018-02-04T07:18:34.203Z,29.47
2018-02-04T07:21:02.714Z,28.67
2018-02-04T07:23:55.843Z,26.93
2018-02-04T07:29:27.948Z,31.97
2018-02-04T07:31:56.250Z,39.23
2018-02-04T07:34:39.672Z,40.70
2018-02-04T07:37:08.518Z,76.63
2018-02-04T07:39:36.065Z,120.70
2018-02-04T07:42:03.610Z,93.60
2018-02-04T07:44:31.155Z,89.30
2018-02-04T07:46:58.712Z,77.30
2018-02-04T07:49:46.323Z,83.73
2018-02-04T07:52:13.861Z,41.60
2018-02-04T07:54:41.438Z,32.03
2018-02-04T07:57:08.982Z,23.97
2018-02-04T07:59:43.651Z,23.30
2018-02-04T08:02:12.030Z,21.00
2018-02-04T08:04:39.591Z,18.97
2018-02-04T08:07:07.898Z,20.23
2018-02-04T08:09:35.450Z,21.00
2018-02-04T08:12:02.998Z,19.53
2018-02-04T08:14:30.575Z,19.07
2018-02-04T08:17:12.511Z,19.43
2018-02-04T08:19:40.093Z,18.93
2018-02-04T08:22:08.405Z,19.60
2018-02-04T08:24:35.960Z,19.37
2018-02-04T08:27:03.523Z,20.63
2018-02-04T08:29:31.082Z,19.80
2018-02-04T08:31:58.662Z,17.50
2018-02-04T08:34:26.228Z,18.63
2018-02-04T08:36:53.808Z,15.67
2018-02-04T08:39:21.381Z,18.67
2018-02-04T08:41:48.942Z,24.53
2018-02-04T08:44:18.518Z,19.73
2018-02-04T08:46:46.066Z,16.90
2018-02-04T08:49:13.614Z,18.13
2018-02-04T08:51:41.168Z,17.57
2018-02-04T08:54:08.721Z,18.10
2018-02-04T08:56:43.014Z,19.67
2018-02-04T08:59:10.554Z,17.23
2018-02-04T09:01:38.133Z,17.00
2018-02-04T09:04:06.460Z,15.43
2018-02-04T09:06:34.007Z,16.87
2018-02-04T09:09:01.612Z,17.33
2018-02-04T09:11:29.164Z,16.80
2018-02-04T09:14:05.008Z,15.60
2018-02-04T09:16:32.579Z,15.87
2018-02-04T09:19:00.122Z,18.23
2018-02-04T09:21:27.672Z,21.77
2018-02-04T09:23:55.222Z,20.93
2018-02-04T09:26:22.793Z,19.33
2018-02-04T09:28:50.345Z,18.33
2018-02-04T09:31:17.891Z,18.10
2018-02-04T09:33:45.443Z,20.20
2018-02-04T09:36:13.748Z,20.90
2018-02-04T09:38:41.325Z,20.90
2018-02-04T09:41:08.978Z,18.43
2018-02-04T09:43:36.523Z,18.73
2018-02-04T09:46:04.063Z,18.37
2018-02-04T09:48:32.365Z,18.70
2018-02-04T09:50:59.933Z,20.20
2018-02-04T09:53:27.490Z,19.80
2018-02-04T09:55:55.027Z,16.93
2018-02-04T09:58:23.457Z,18.23
2018-02-04T10:00:51.195Z,18.30
2018-02-04T10:03:20.787Z,16.17
2018-02-04T10:05:48.380Z,17.07
2018-02-04T10:08:15.953Z,17.40
2018-02-04T10:10:44.379Z,19.30
2018-02-04T10:13:13.716Z,14.77
2018-02-04T10:15:41.258Z,19.10
2018-02-04T10:18:12.230Z,20.60
2018-02-04T10:20:39.809Z,15.70
2018-02-04T10:23:07.351Z,15.10
2018-02-04T10:25:34.909Z,11.53
2018-02-04T10:28:25.918Z,15.10
2018-02-04T10:30:53.470Z,10.40
2018-02-04T10:33:21.051Z,13.43
2018-02-04T10:35:48.616Z,12.43
2018-02-04T10:38:16.172Z,12.63
2018-02-04T10:40:43.729Z,12.23
2018-02-04T10:43:12.285Z,14.67
2018-02-04T10:45:39.892Z,11.53
2018-02-04T10:48:07.434Z,7.97
2018-02-04T10:50:35.002Z,9.30
2018-02-04T10:53:02.555Z,11.93
2018-02-04T10:55:30.115Z,13.90
2018-02-04T10:58:05.795Z,13.90
2018-02-04T11:00:36.061Z,11.10
2018-02-04T11:03:10.070Z,12.73
2018-02-04T11:05:37.614Z,12.47
2018-02-04T11:08:06.078Z,12.10
2018-02-04T11:10:34.397Z,14.10
2018-02-04T11:13:01.947Z,11.43
2018-02-04T11:15:29.530Z,13.40
2018-02-04T11:17:57.087Z,13.40
2018-02-04T11:20:24.642Z,12.50
2018-02-04T11:22:52.956Z,14.00
2018-02-04T11:25:20.504Z,12.63
2018-02-04T11:33:59.590Z,11.17
2018-02-04T11:36:27.134Z,10.60
2018-02-04T11:38:54.702Z,10.70
2018-02-04T11:41:22.249Z,10.83
2018-02-04T11:43:49.786Z,13.77
2018-02-04T11:46:17.329Z,12.77
2018-02-04T11:48:50.814Z,11.53
2018-02-04T11:51:18.384Z,10.13
2018-02-04T11:53:45.922Z,10.00
2018-02-04T11:56:14.238Z,10.80
2018-02-04T11:58:41.787Z,12.07
2018-02-04T12:01:09.347Z,8.23
2018-02-04T12:03:36.934Z,9.80
2018-02-04T12:06:04.476Z,9.83
2018-02-04T12:08:33.978Z,12.23
2018-02-04T12:11:01.530Z,12.33
2018-02-04T12:13:29.115Z,14.37
2018-02-04T12:16:10.042Z,11.23
2018-02-04T12:18:38.366Z,14.63
2018-02-04T12:21:05.912Z,13.80
2018-02-04T12:23:33.472Z,12.10
2018-02-04T12:26:01.028Z,14.87
2018-02-04T12:28:28.608Z,14.57
2018-02-04T12:30:56.152Z,16.87
2018-02-04T12:33:23.707Z,12.70
2018-02-04T12:35:52.186Z,11.37
2018-02-04T12:38:19.734Z,12.23
2018-02-04T12:40:52.140Z,14.80
2018-02-04T12:43:19.714Z,11.27
2018-02-04T12:45:47.263Z,12.20
2018-02-04T12:48:14.833Z,12.73
2018-02-04T12:50:44.422Z,13.13
2018-02-04T12:53:13.016Z,12.53
2018-02-04T12:55:40.567Z,10.93
2018-02-04T12:58:08.115Z,15.77
2018-02-04T13:00:46.312Z,14.50
2018-02-04T13:03:13.902Z,13.30
2018-02-04T13:05:41.477Z,10.73
2018-02-04T13:08:09.013Z,9.60
2018-02-04T13:10:36.554Z,6.90
2018-02-04T13:13:04.110Z,6.90
2018-02-04T13:15:31.648Z,6.60
2018-02-04T13:17:59.253Z,10.50
2018-02-04T13:20:26.802Z,7.70
2018-02-04T13:22:54.351Z,7.03
2018-02-04T13:25:22.662Z,6.33
2018-02-04T13:27:50.218Z,5.83
2018-02-04T13:30:17.779Z,5.67
2018-02-04T13:32:45.322Z,6.10
2018-02-04T13:35:12.858Z,6.10
2018-02-04T13:37:41.171Z,5.93
2018-02-04T13:40:11.923Z,6.90
2018-02-04T13:42:39.494Z,7.00
2018-02-04T13:45:07.047Z,7.10
2018-02-04T13:47:34.593Z,6.90
2018-02-04T13:50:02.130Z,6.30
2018-02-04T13:52:37.494Z,6.57
2018-02-04T13:55:05.068Z,7.70
2018-02-04T13:57:32.617Z,6.40
2018-02-04T14:00:01.191Z,6.77
2018-02-04T14:02:28.757Z,7.60
2018-02-04T14:04:56.329Z,6.70
2018-02-04T14:07:23.909Z,7.13
2018-02-04T14:09:51.452Z,6.43
2018-02-04T14:12:18.998Z,6.70
2018-02-04T14:14:53.079Z,7.60
2018-02-04T14:17:20.637Z,7.30
2018-02-04T14:19:48.963Z,7.53
2018-02-04T14:22:16.615Z,8.90
2018-02-04T14:24:44.158Z,9.60
2018-02-04T14:27:13.249Z,8.10
2018-02-04T14:29:40.789Z,8.33
2018-02-04T14:32:09.128Z,10.57
2018-02-04T14:34:36.671Z,9.17
2018-02-04T14:37:04.224Z,10.27
2018-02-04T14:39:31.768Z,11.77
2018-02-04T14:41:59.408Z,11.50
2018-02-04T14:44:27.754Z,9.53
2018-02-04T14:46:55.402Z,8.57
2018-02-04T14:49:22.938Z,9.23
2018-02-04T14:51:50.472Z,11.17
2018-02-04T14:54:18.777Z,8.50
2018-02-04T14:56:46.346Z,12.57
2018-02-04T14:59:13.897Z,10.23
2018-02-04T15:01:41.452Z,11.80
2018-02-04T15:04:21.070Z,11.83
2018-02-04T15:06:49.384Z,13.90
2018-02-04T15:09:16.953Z,11.63
2018-02-04T15:11:44.502Z,10.90
2018-02-04T15:14:12.138Z,13.50
2018-02-04T15:16:39.685Z,13.70
2018-02-04T15:19:08.000Z,12.67
2018-02-04T15:21:35.580Z,12.83
2018-02-04T15:24:03.120Z,12.00
2018-02-04T15:26:30.698Z,11.73
2018-02-04T15:28:58.245Z,13.10
2018-02-04T15:31:25.806Z,12.90
2018-02-04T15:33:54.430Z,14.07
2018-02-04T15:36:22.006Z,12.70
2018-02-04T15:38:50.343Z,13.13
2018-02-04T15:41:17.883Z,19.13
2018-02-04T15:43:45.479Z,15.47
2018-02-04T15:46:13.056Z,14.57
2018-02-04T15:48:40.599Z,12.37
2018-02-04T15:51:08.131Z,12.40
2018-02-04T15:53:35.671Z,12.80
2018-02-04T15:56:03.215Z,11.90
2018-02-04T15:58:30.811Z,12.60
2018-02-04T16:00:58.414Z,12.70
2018-02-04T16:03:25.954Z,15.67
2018-02-04T16:05:53.496Z,14.27
2018-02-04T16:08:21.051Z,18.93
2018-02-04T16:10:48.625Z,19.30
2018-02-04T16:13:16.171Z,18.60
2018-02-04T16:15:48.259Z,16.57
2018-02-04T16:18:15.851Z,16.10
2018-02-04T16:20:43.377Z,19.97
2018-02-04T16:23:10.918Z,16.50
2018-02-04T16:25:38.458Z,12.80
2018-02-04T16:28:06.026Z,19.20
2018-02-04T16:30:33.575Z,18.17
2018-02-04T16:33:01.114Z,15.83
2018-02-04T16:35:29.455Z,17.27
2018-02-04T16:37:57.006Z,17.83
2018-02-04T16:40:26.522Z,17.17
2018-02-04T16:42:54.067Z,21.97
2018-02-04T16:45:21.623Z,20.73
2018-02-04T16:47:49.191Z,24.23
2018-02-04T16:50:16.745Z,26.13
2018-02-04T16:55:46.227Z,20.50
2018-02-04T16:58:14.587Z,21.67
2018-02-04T17:00:42.134Z,21.02
2018-02-04T17:03:11.719Z,22.67
2018-02-04T17:05:41.216Z,30.20
2018-02-04T17:08:08.823Z,23.83
2018-02-04T17:10:36.375Z,24.53
2018-02-04T17:13:04.919Z,23.15
2018-02-04T17:15:33.406Z,22.40
2018-02-04T17:20:53.738Z,26.50
2018-02-04T17:23:21.306Z,20.90
2018-02-04T17:25:56.389Z,22.37
2018-02-04T17:28:27.994Z,23.20
2018-02-04T17:30:56.563Z,24.77
2018-02-04T17:33:24.113Z,24.60
2018-02-04T17:35:51.678Z,21.60
2018-02-04T17:38:23.641Z,23.03
2018-02-04T17:40:52.091Z,21.95
2018-02-04T17:43:19.643Z,22.92
2018-02-04T17:45:47.960Z,24.42
2018-02-04T17:48:16.543Z,24.20
2018-02-04T17:50:44.107Z,24.27
2018-02-04T17:53:11.695Z,21.07
2018-02-04T17:55:39.266Z,24.83
2018-02-04T17:58:06.866Z,26.83
2018-02-04T18:00:34.456Z,21.03
2018-02-04T18:03:02.013Z,23.23
2018-02-04T18:05:29.590Z,25.20
2018-02-04T18:07:57.142Z,23.90
2018-02-04T18:10:26.630Z,26.90
2018-02-04T18:12:54.178Z,29.73
2018-02-04T18:15:34.370Z,24.53
2018-02-04T18:18:08.574Z,29.77
2018-02-04T18:20:39.423Z,35.88
2018-02-04T18:23:06.975Z,27.37
2018-02-04T18:25:39.936Z,23.53
2018-02-04T18:28:07.511Z,31.17
2018-02-04T18:30:38.464Z,23.40
2018-02-04T18:33:06.018Z,23.27
2018-02-04T18:35:33.586Z,21.67
2018-02-04T18:38:01.907Z,22.47
2018-02-04T18:40:30.230Z,22.10
2018-02-04T18:42:57.821Z,27.40
2018-02-04T18:45:26.163Z,25.70
2018-02-04T18:47:53.719Z,26.37
2018-02-04T18:50:21.311Z,26.70
2018-02-04T18:52:48.857Z,30.73
2018-02-04T18:55:16.435Z,26.47
2018-02-04T18:57:44.049Z,25.00
2018-02-04T19:00:12.347Z,31.67
2018-02-04T19:02:39.906Z,30.53
2018-02-04T19:05:07.466Z,26.40
2018-02-04T19:07:35.054Z,35.57
2018-02-04T19:10:02.643Z,28.73
2018-02-04T19:12:30.970Z,25.67
2018-02-04T19:15:15.164Z,29.00
2018-02-04T19:17:43.492Z,28.95
2018-02-04T19:20:11.084Z,24.85
2018-02-04T19:22:38.969Z,27.48
2018-02-04T19:25:09.296Z,24.80
2018-02-04T19:27:37.628Z,27.90
2018-02-04T19:30:08.811Z,24.40
2018-02-04T19:32:36.409Z,24.42
2018-02-04T19:35:03.974Z,29.13
2018-02-04T19:37:31.526Z,32.73
2018-02-04T19:39:59.099Z,25.63
2018-02-04T19:42:26.666Z,26.15
2018-02-04T19:45:15.193Z,27.00
2018-02-04T19:47:42.755Z,25.67
2018-02-04T19:50:20.482Z,28.30
2018-02-04T19:52:48.035Z,26.05
2018-02-04T19:55:15.582Z,28.53
2018-02-04T19:57:46.599Z,31.30
2018-02-04T20:00:28.901Z,33.33
2018-02-04T20:03:05.712Z,25.50
2018-02-04T20:05:33.257Z,24.70
2018-02-04T20:08:01.569Z,26.90
2018-02-04T20:10:29.123Z,26.90
2018-02-04T20:12:56.719Z,26.40
2018-02-04T20:15:41.193Z,29.47
2018-02-04T20:18:10.482Z,27.37
2018-02-04T20:20:38.042Z,30.47
2018-02-04T20:23:05.598Z,28.85
2018-02-04T20:25:34.087Z,30.43
2018-02-04T20:28:04.976Z,28.85
2018-02-04T20:30:32.558Z,25.85
2018-02-04T20:33:11.818Z,32.50
2018-02-04T20:35:44.202Z,30.10
2018-02-04T20:38:22.517Z,27.17
2018-02-04T20:40:50.872Z,26.37
2018-02-04T20:43:18.431Z,26.53
2018-02-04T20:45:45.987Z,27.60
2018-02-04T20:48:14.549Z,31.63
2018-02-04T20:50:42.135Z,26.67
2018-02-04T20:53:09.703Z,28.50
2018-02-04T20:55:37.260Z,29.43
2018-02-04T20:58:04.816Z,34.03
2018-02-04T21:00:32.367Z,37.67
2018-02-04T21:02:59.937Z,28.17
2018-02-04T21:05:27.498Z,28.02
2018-02-04T21:07:55.055Z,28.80
2018-02-04T21:10:23.388Z,29.00
2018-02-04T21:12:50.926Z,26.50
2018-02-04T21:15:19.240Z,29.47
2018-02-04T21:17:46.788Z,26.97
2018-02-04T21:20:14.342Z,27.57
2018-02-04T21:22:41.954Z,28.23
2018-02-04T21:25:09.506Z,29.17
2018-02-04T21:27:37.073Z,31.57
2018-02-04T21:30:04.620Z,33.80
2018-02-04T21:32:32.172Z,31.20
2018-02-04T21:34:59.773Z,31.53
2018-02-04T21:37:27.323Z,31.57
2018-02-04T21:39:54.904Z,29.87
2018-02-04T21:42:23.223Z,30.87
2018-02-04T21:44:56.847Z,33.30
2018-02-04T21:47:24.422Z,31.47
2018-02-04T21:49:51.965Z,34.10
2018-02-04T21:52:19.518Z,33.30
2018-02-04T21:54:47.066Z,40.53
2018-02-04T21:57:14.624Z,37.87
2018-02-04T21:59:42.208Z,35.00
2018-02-04T22:02:09.790Z,34.40
2018-02-04T22:04:37.346Z,37.80
2018-02-04T22:07:04.895Z,36.15
2018-02-04T22:09:32.451Z,39.50
2018-02-04T22:12:00.037Z,35.67
2018-02-04T22:14:27.598Z,38.17
2018-02-04T22:16:55.928Z,38.13
2018-02-04T22:19:23.673Z,38.87
2018-02-04T22:21:51.251Z,37.80
2018-02-04T22:24:18.831Z,37.27
2018-02-04T22:26:46.389Z,37.83
2018-02-04T22:29:13.962Z,37.10
2018-02-04T22:31:41.515Z,42.37
2018-02-04T22:34:09.067Z,33.17
2018-02-04T22:36:36.663Z,36.63
2018-02-04T22:39:04.238Z,37.67
2018-02-04T22:41:32.727Z,38.53
2018-02-04T22:44:00.359Z,35.13
2018-02-04T22:46:27.912Z,35.37
2018-02-04T22:48:55.506Z,36.83
2018-02-04T22:51:23.838Z,38.27
2018-02-04T22:53:51.404Z,40.67
2018-02-04T22:56:18.956Z,32.00
2018-02-04T22:58:46.518Z,39.17
2018-02-04T23:01:14.113Z,38.43
2018-02-04T23:03:42.438Z,36.93
2018-02-04T23:06:10.000Z,34.70
2018-02-04T23:08:37.551Z,33.13
2018-02-04T23:11:05.100Z,38.13
2018-02-04T23:13:32.688Z,38.63
2018-02-04T23:16:00.244Z,39.30
2018-02-04T23:18:27.786Z,40.53
2018-02-04T23:20:55.347Z,42.40
2018-02-04T23:23:22.891Z,35.33
2018-02-04T23:25:50.477Z,39.57
2018-02-04T23:28:18.042Z,40.97
2018-02-04T23:30:45.598Z,38.03
2018-02-04T23:33:13.154Z,35.20
2018-02-04T23:35:40.720Z,38.50
2018-02-04T23:38:08.296Z,31.80
2018-02-04T23:40:35.857Z,37.80
2018-02-04T23:43:03.404Z,38.27
2018-02-04T23:45:30.959Z,34.53
2018-02-04T23:47:58.518Z,33.97
2018-02-04T23:50:26.098Z,39.57
2018-02-04T23:52:53.651Z,37.87
2018-02-04T23:55:21.204Z,35.67
2018-02-04T23:57:48.763Z,33.77
